createdAt,value
2019-04-13T00:00:10.289Z,18.80
2019-04-13T00:02:41.601Z,16.02
2019-04-13T00:05:29.002Z,17.98
2019-04-13T00:08:01.875Z,16.52
2019-04-13T00:10:42.473Z,15.50
2019-04-13T00:13:11.903Z,17.95
2019-04-13T00:15:41.215Z,18.52
2019-04-13T00:18:10.544Z,18.45
2019-04-13T00:20:40.047Z,19.07
2019-04-13T00:23:09.494Z,16.82
2019-04-13T00:25:38.998Z,18.02
2019-04-13T00:28:08.393Z,20.97
2019-04-13T00:30:37.742Z,17.50
2019-04-13T00:33:07.020Z,16.77
2019-04-13T00:35:39.174Z,17.82
2019-04-13T00:38:08.490Z,18.15
2019-04-13T00:40:38.018Z,17.48
2019-04-13T00:43:07.392Z,17.27
2019-04-13T00:45:36.965Z,18.62
2019-04-13T00:48:06.389Z,18.92
2019-04-13T00:50:35.769Z,17.20
2019-04-13T00:53:05.185Z,19.12
2019-04-13T00:55:34.900Z,17.67
2019-04-13T00:58:04.227Z,20.25
2019-04-13T01:00:33.707Z,19.10
2019-04-13T01:03:03.047Z,18.55
2019-04-13T01:05:32.899Z,18.02
2019-04-13T01:08:02.309Z,19.10
2019-04-13T01:10:31.681Z,19.32
2019-04-13T01:13:01.101Z,19.70
2019-04-13T01:15:30.456Z,17.73
2019-04-13T01:17:59.904Z,17.30
2019-04-13T01:20:29.304Z,18.37
2019-04-13T01:22:58.732Z,19.98
2019-04-13T01:25:28.222Z,17.35
2019-04-13T01:27:57.630Z,18.00
2019-04-13T01:30:27.079Z,17.60
2019-04-13T01:32:56.483Z,16.93
2019-04-13T01:35:25.790Z,16.93
2019-04-13T01:37:55.233Z,17.62
2019-04-13T01:40:24.631Z,19.57
2019-04-13T01:42:53.941Z,18.98
2019-04-13T01:45:23.358Z,20.80
2019-04-13T01:47:52.743Z,18.87
2019-04-13T01:50:22.194Z,19.75
2019-04-13T01:52:51.569Z,17.77
2019-04-13T01:55:20.882Z,18.80
2019-04-13T01:57:50.289Z,18.25
2019-04-13T02:00:22.244Z,17.37
2019-04-13T02:02:52.421Z,18.48
2019-04-13T02:05:36.366Z,18.87
2019-04-13T02:08:11.714Z,18.17
2019-04-13T02:10:43.757Z,19.60
2019-04-13T02:13:13.109Z,19.30
2019-04-13T02:15:42.418Z,19.42
2019-04-13T02:18:11.719Z,20.82
2019-04-13T02:20:41.097Z,19.62
2019-04-13T02:23:10.496Z,20.20
2019-04-13T02:25:39.891Z,20.45
2019-04-13T02:28:09.329Z,18.87
2019-04-13T02:30:38.752Z,19.70
2019-04-13T02:33:08.100Z,18.70
2019-04-13T02:35:38.417Z,21.48
2019-04-13T02:38:07.761Z,20.30
2019-04-13T02:40:37.182Z,19.40
2019-04-13T02:43:06.615Z,17.48
2019-04-13T02:45:36.007Z,19.42
2019-04-13T02:48:05.314Z,20.43
2019-04-13T02:50:37.453Z,18.60
2019-04-13T02:53:06.798Z,21.75
2019-04-13T02:55:36.175Z,18.65
2019-04-13T02:58:05.561Z,20.97
2019-04-13T03:00:34.932Z,18.85
2019-04-13T03:03:04.813Z,18.90
2019-04-13T03:05:41.367Z,19.90
2019-04-13T03:08:05.510Z,18.57
2019-04-13T03:10:34.914Z,21.50
2019-04-13T03:13:04.360Z,20.50
2019-04-13T03:16:02.000Z,21.97
2019-04-13T03:18:36.148Z,21.75
2019-04-13T03:21:05.552Z,21.07
2019-04-13T03:23:34.907Z,19.32
2019-04-13T03:26:04.204Z,19.42
2019-04-13T03:28:33.540Z,21.25
2019-04-13T03:31:02.937Z,20.12
2019-04-13T03:33:32.250Z,19.90
2019-04-13T03:36:01.701Z,20.15
2019-04-13T03:38:31.079Z,21.02
2019-04-13T03:41:00.480Z,20.37
2019-04-13T03:43:29.864Z,19.05
2019-04-13T03:45:59.290Z,21.05
2019-04-13T03:48:28.704Z,20.70
2019-04-13T03:50:58.087Z,18.37
2019-04-13T03:53:27.408Z,21.70
2019-04-13T03:55:56.793Z,19.52
2019-04-13T03:58:26.214Z,19.57
2019-04-13T04:00:55.558Z,21.42
2019-04-13T04:03:25.064Z,19.37
2019-04-13T04:05:54.424Z,22.07
2019-04-13T04:08:23.834Z,20.40
2019-04-13T04:10:53.209Z,24.12
2019-04-13T04:13:22.564Z,19.50
2019-04-13T04:15:51.955Z,20.60
2019-04-13T04:18:21.543Z,21.40
2019-04-13T04:20:51.077Z,19.05
2019-04-13T04:23:20.460Z,21.57
2019-04-13T04:25:49.770Z,20.60
2019-04-13T04:28:19.192Z,18.87
2019-04-13T04:30:48.548Z,20.20
2019-04-13T04:33:17.898Z,19.65
2019-04-13T04:35:47.308Z,21.05
2019-04-13T04:38:16.776Z,20.85
2019-04-13T04:40:46.143Z,18.87
2019-04-13T04:43:15.530Z,21.42
2019-04-13T04:45:45.021Z,20.30
2019-04-13T04:48:14.410Z,20.15
2019-04-13T04:50:43.794Z,20.65
2019-04-13T04:53:13.089Z,22.17
2019-04-13T04:55:42.414Z,22.35
2019-04-13T04:58:11.776Z,21.65
2019-04-13T05:00:41.264Z,20.75
2019-04-13T05:03:10.664Z,20.55
2019-04-13T05:05:41.448Z,20.77
2019-04-13T05:08:14.408Z,22.70
2019-04-13T05:10:41.929Z,18.42
2019-04-13T05:13:11.327Z,20.15
2019-04-13T05:15:40.630Z,19.25
2019-04-13T05:18:10.061Z,19.75
2019-04-13T05:20:39.405Z,20.55
2019-04-13T05:23:08.786Z,19.65
2019-04-13T05:25:38.257Z,21.15
2019-04-13T05:28:07.563Z,18.62
2019-04-13T05:30:37.012Z,20.65
2019-04-13T05:33:06.414Z,19.70
2019-04-13T05:35:35.745Z,20.25
2019-04-13T05:38:05.273Z,19.50
2019-04-13T05:40:34.792Z,20.45
2019-04-13T05:43:04.205Z,20.65
2019-04-13T05:45:36.800Z,18.65
2019-04-13T05:48:06.310Z,16.65
2019-04-13T05:50:35.653Z,19.92
2019-04-13T05:53:04.978Z,19.55
2019-04-13T05:55:34.494Z,19.25
2019-04-13T05:58:03.799Z,19.27
2019-04-13T06:00:33.175Z,21.85
2019-04-13T06:03:02.504Z,18.82
2019-04-13T06:05:31.988Z,22.10
2019-04-13T06:08:01.384Z,19.70
2019-04-13T06:10:30.741Z,20.17
2019-04-13T06:13:00.109Z,18.70
2019-04-13T06:15:31.124Z,19.73
2019-04-13T06:18:00.537Z,20.30
2019-04-13T06:20:32.721Z,19.25
2019-04-13T06:23:02.232Z,18.30
2019-04-13T06:25:31.767Z,19.37
2019-04-13T06:28:01.153Z,19.40
2019-04-13T06:30:48.353Z,16.82
2019-04-13T06:33:39.708Z,20.55
2019-04-13T06:36:09.556Z,18.62
2019-04-13T06:38:39.150Z,19.23
2019-04-13T06:41:10.890Z,20.27
2019-04-13T06:43:39.683Z,21.70
2019-04-13T06:46:09.111Z,19.40
2019-04-13T06:48:38.499Z,19.52
2019-04-13T06:51:07.930Z,20.10
2019-04-13T06:53:38.559Z,21.87
2019-04-13T06:56:08.584Z,18.35
2019-04-13T06:58:38.003Z,18.02
2019-04-13T07:01:07.469Z,19.37
2019-04-13T07:03:37.007Z,18.77
2019-04-13T07:06:06.502Z,20.70
2019-04-13T07:08:41.085Z,19.92
2019-04-13T07:11:21.531Z,20.62
2019-04-13T07:13:53.117Z,22.30
2019-04-13T07:16:31.586Z,21.30
2019-04-13T07:19:00.976Z,22.60
2019-04-13T07:21:30.320Z,20.25
2019-04-13T07:23:59.691Z,23.15
2019-04-13T07:26:29.200Z,22.67
2019-04-13T07:28:58.559Z,21.37
2019-04-13T07:31:31.111Z,24.23
2019-04-13T07:33:59.086Z,22.05
2019-04-13T07:36:28.550Z,21.97
2019-04-13T07:38:58.029Z,26.07
2019-04-13T07:41:31.139Z,25.72
2019-04-13T07:43:58.624Z,24.52
2019-04-13T07:46:56.047Z,27.90
2019-04-13T07:49:44.061Z,25.48
2019-04-13T07:52:41.356Z,25.32
2019-04-13T07:55:11.026Z,27.90
2019-04-13T07:57:40.562Z,27.17
2019-04-13T08:00:10.161Z,30.32
2019-04-13T08:02:39.686Z,29.27
2019-04-13T08:05:09.105Z,28.07
2019-04-13T08:07:49.145Z,26.00
2019-04-13T08:10:09.712Z,27.77
2019-04-13T08:12:39.213Z,26.75
2019-04-13T08:15:08.733Z,27.60
2019-04-13T08:17:38.162Z,30.82
2019-04-13T08:20:29.505Z,26.75
2019-04-13T08:22:59.293Z,26.93
2019-04-13T08:25:28.735Z,26.25
2019-04-13T08:27:58.178Z,30.43
2019-04-13T08:30:29.165Z,29.63
2019-04-13T08:33:00.917Z,27.73
2019-04-13T08:35:29.770Z,30.15
2019-04-13T08:38:12.211Z,31.30
2019-04-13T08:40:30.273Z,29.20
2019-04-13T08:42:59.926Z,28.98
2019-04-13T08:45:29.852Z,24.90
2019-04-13T08:47:59.237Z,27.93
2019-04-13T08:50:28.907Z,25.75
2019-04-13T08:53:01.266Z,25.90
2019-04-13T08:55:30.674Z,26.10
2019-04-13T08:58:00.234Z,27.02
2019-04-13T09:00:29.593Z,25.85
2019-04-13T09:02:59.023Z,28.07
2019-04-13T09:05:31.514Z,25.82
2019-04-13T09:08:00.928Z,26.93
2019-04-13T09:10:31.704Z,23.73
2019-04-13T09:13:01.415Z,24.80
2019-04-13T09:15:31.159Z,23.05
2019-04-13T09:18:14.798Z,24.95
2019-04-13T09:20:52.531Z,25.85
2019-04-13T09:23:23.159Z,28.35
2019-04-13T09:25:52.632Z,23.15
2019-04-13T09:28:22.176Z,26.27
2019-04-13T09:30:52.334Z,27.25
2019-04-13T09:33:22.286Z,27.87
2019-04-13T09:35:56.212Z,26.80
2019-04-13T09:38:23.038Z,28.38
2019-04-13T09:40:52.527Z,29.07
2019-04-13T09:43:26.584Z,22.62
2019-04-13T09:45:56.156Z,24.95
2019-04-13T09:48:25.605Z,27.27
2019-04-13T09:50:55.185Z,25.88
2019-04-13T09:53:24.507Z,23.90
2019-04-13T09:55:53.854Z,24.35
2019-04-13T09:58:23.281Z,26.35
2019-04-13T10:00:52.744Z,28.67
2019-04-13T10:03:22.142Z,22.58
2019-04-13T10:05:51.533Z,30.92
2019-04-13T10:08:21.033Z,26.42
2019-04-13T10:10:50.457Z,29.20
2019-04-13T10:13:41.830Z,27.90
2019-04-13T10:16:30.168Z,26.95
2019-04-13T10:18:59.778Z,32.85
2019-04-13T10:21:29.295Z,26.70
2019-04-13T10:23:58.737Z,24.90
2019-04-13T10:26:29.442Z,25.82
2019-04-13T10:28:59.102Z,24.23
2019-04-13T10:31:28.640Z,26.20
2019-04-13T10:33:58.157Z,20.50
2019-04-13T10:36:27.625Z,26.10
2019-04-13T10:39:07.947Z,28.05
2019-04-13T10:41:28.121Z,24.02
2019-04-13T10:43:59.720Z,22.65
2019-04-13T10:46:44.370Z,23.27
2019-04-13T10:49:38.815Z,23.95
2019-04-13T10:52:12.783Z,23.77
2019-04-13T10:54:42.193Z,20.60
2019-04-13T10:57:12.819Z,24.52
2019-04-13T10:59:43.436Z,23.60
2019-04-13T11:02:21.678Z,21.12
2019-04-13T11:04:43.933Z,19.75
2019-04-13T11:07:13.308Z,18.42
2019-04-13T11:09:42.843Z,19.77
2019-04-13T11:12:12.363Z,19.42
2019-04-13T11:14:43.365Z,19.07
2019-04-13T11:17:13.100Z,15.48
2019-04-13T11:19:42.556Z,16.23
2019-04-13T11:22:12.027Z,20.35
2019-04-13T11:24:41.733Z,18.70
2019-04-13T11:27:11.567Z,18.92
2019-04-13T11:29:40.915Z,16.12
2019-04-13T11:32:10.361Z,19.52
2019-04-13T11:34:39.805Z,15.98
2019-04-13T11:37:09.204Z,15.88
2019-04-13T11:39:41.442Z,18.60
2019-04-13T11:42:28.746Z,15.50
2019-04-13T11:45:16.028Z,15.08
2019-04-13T11:48:07.510Z,15.50
2019-04-13T11:50:41.801Z,16.60
2019-04-13T11:53:11.195Z,16.25
2019-04-13T11:55:40.633Z,17.52
2019-04-13T11:58:10.105Z,19.75
2019-04-13T12:01:02.547Z,18.30
2019-04-13T12:03:53.863Z,19.77
2019-04-13T12:06:30.735Z,17.52
2019-04-13T12:09:06.898Z,20.27
2019-04-13T12:12:00.962Z,18.45
2019-04-13T12:14:51.523Z,18.32
2019-04-13T12:17:52.004Z,17.15
2019-04-13T12:20:32.592Z,18.55
2019-04-13T12:23:02.003Z,19.02
2019-04-13T12:25:31.410Z,15.48
2019-04-13T12:28:00.867Z,16.82
2019-04-13T12:30:31.632Z,16.12
2019-04-13T12:33:01.017Z,18.90
2019-04-13T12:35:33.839Z,17.45
2019-04-13T12:38:03.937Z,16.62
2019-04-13T12:40:43.541Z,20.30
2019-04-13T12:43:13.672Z,18.05
2019-04-13T12:45:45.826Z,18.20
2019-04-13T12:48:18.511Z,19.37
2019-04-13T12:50:46.376Z,18.10
2019-04-13T12:53:15.789Z,17.20
2019-04-13T12:55:45.108Z,20.50
2019-04-13T12:58:14.533Z,20.05
2019-04-13T13:00:50.127Z,17.90
2019-04-13T13:03:21.540Z,17.48
2019-04-13T13:05:55.177Z,19.40
2019-04-13T13:08:24.651Z,17.27
2019-04-13T13:10:54.370Z,17.48
2019-04-13T13:13:23.850Z,21.93
2019-04-13T13:15:53.332Z,19.90
2019-04-13T13:18:26.195Z,16.30
2019-04-13T13:20:53.863Z,22.60
2019-04-13T13:23:23.434Z,18.67
2019-04-13T13:25:52.835Z,20.10
2019-04-13T13:28:22.249Z,21.02
2019-04-13T13:30:51.811Z,20.45
2019-04-13T13:33:21.227Z,19.62
2019-04-13T13:35:50.789Z,19.25
2019-04-13T13:38:20.307Z,18.48
2019-04-13T13:40:49.874Z,17.85
2019-04-13T13:43:19.268Z,18.62
2019-04-13T13:45:48.713Z,19.35
2019-04-13T13:48:18.131Z,19.17
2019-04-13T13:50:47.490Z,19.45
2019-04-13T13:53:18.822Z,18.20
2019-04-13T13:55:48.043Z,18.45
2019-04-13T13:58:41.651Z,17.87
2019-04-13T14:01:17.412Z,19.17
2019-04-13T14:03:46.886Z,18.90
2019-04-13T14:06:18.485Z,19.55
2019-04-13T14:08:47.622Z,17.52
2019-04-13T14:11:17.236Z,17.27
2019-04-13T14:13:46.645Z,19.98
2019-04-13T14:16:16.226Z,19.95
2019-04-13T14:18:45.819Z,18.00
2019-04-13T14:21:15.249Z,16.90
2019-04-13T14:23:44.772Z,20.23
2019-04-13T14:26:14.103Z,21.37
2019-04-13T14:28:43.592Z,20.20
2019-04-13T14:31:13.066Z,18.42
2019-04-13T14:33:42.620Z,20.27
2019-04-13T14:36:12.048Z,21.35
2019-04-13T14:38:41.666Z,19.42
2019-04-13T14:41:11.087Z,21.70
2019-04-13T14:43:41.273Z,20.48
2019-04-13T14:46:11.757Z,24.07
2019-04-13T14:48:41.229Z,21.10
2019-04-13T14:51:10.994Z,20.37
2019-04-13T14:53:40.515Z,20.85
2019-04-13T14:56:09.959Z,21.68
2019-04-13T14:58:39.478Z,20.10
2019-04-13T15:01:08.873Z,21.48
2019-04-13T15:03:38.345Z,20.68
2019-04-13T15:06:07.816Z,21.27
2019-04-13T15:08:37.253Z,19.80
2019-04-13T15:11:16.611Z,19.37
2019-04-13T15:13:38.284Z,22.20
2019-04-13T15:16:10.771Z,23.05
2019-04-13T15:19:01.539Z,21.80
2019-04-13T15:21:31.781Z,20.30
2019-04-13T15:24:00.234Z,26.07
2019-04-13T15:26:29.876Z,22.98
2019-04-13T15:29:03.075Z,20.48
2019-04-13T15:31:35.334Z,29.52
2019-04-13T15:34:03.675Z,24.60
2019-04-13T15:36:34.131Z,21.82
2019-04-13T15:39:07.261Z,22.02
2019-04-13T15:41:52.252Z,20.75
2019-04-13T15:44:10.958Z,18.42
2019-04-13T15:46:41.543Z,20.08
2019-04-13T15:49:11.181Z,21.37
2019-04-13T15:51:43.071Z,20.77
2019-04-13T15:54:12.322Z,20.27
2019-04-13T15:56:44.307Z,20.88
2019-04-13T15:59:16.421Z,20.15
2019-04-13T16:01:46.819Z,20.72
2019-04-13T16:04:18.388Z,23.45
2019-04-13T16:06:48.642Z,20.15
2019-04-13T16:09:43.300Z,20.40
2019-04-13T16:12:19.178Z,25.10
2019-04-13T16:14:48.568Z,21.93
2019-04-13T16:17:18.750Z,22.98
2019-04-13T16:19:48.266Z,25.80
2019-04-13T16:22:17.785Z,22.35
2019-04-13T16:24:48.535Z,22.95
2019-04-13T16:27:18.564Z,23.02
2019-04-13T16:30:04.369Z,24.12
2019-04-13T16:32:53.464Z,23.27
2019-04-13T16:35:32.839Z,21.82
2019-04-13T16:38:03.496Z,22.20
2019-04-13T16:40:35.604Z,24.40
2019-04-13T16:43:05.873Z,25.52
2019-04-13T16:46:07.321Z,23.90
2019-04-13T16:49:04.952Z,23.42
2019-04-13T16:51:45.747Z,25.25
2019-04-13T16:54:50.721Z,25.95
2019-04-13T16:57:24.010Z,29.02
2019-04-13T17:00:12.206Z,24.95
2019-04-13T17:03:03.644Z,24.55
2019-04-13T17:05:35.532Z,26.17
2019-04-13T17:08:05.617Z,27.50
2019-04-13T17:10:35.711Z,24.55
2019-04-13T17:13:05.637Z,26.73
2019-04-13T17:15:35.530Z,26.30
2019-04-13T17:18:10.036Z,26.35
2019-04-13T17:21:10.617Z,27.80
2019-04-13T17:23:52.252Z,26.27
2019-04-13T17:26:33.542Z,26.82
2019-04-13T17:29:31.640Z,27.98
2019-04-13T17:32:09.047Z,28.60
2019-04-13T17:34:50.701Z,31.95
2019-04-13T17:37:21.206Z,29.60
2019-04-13T17:39:50.842Z,29.37
2019-04-13T17:42:43.030Z,31.93
2019-04-13T17:45:25.300Z,31.73
2019-04-13T17:48:06.449Z,29.35
2019-04-13T17:50:51.648Z,30.68
2019-04-13T17:53:37.344Z,27.22
2019-04-13T17:56:13.400Z,31.10
2019-04-13T17:59:00.665Z,29.72
2019-04-13T18:01:48.202Z,31.30
2019-04-13T18:04:37.293Z,25.50
2019-04-13T18:07:35.021Z,31.02
2019-04-13T18:10:30.077Z,31.82
2019-04-13T18:13:24.627Z,35.60
2019-04-13T18:16:17.467Z,32.58
2019-04-13T18:18:51.873Z,30.77
2019-04-13T18:21:22.066Z,27.85
2019-04-13T18:23:52.619Z,30.82
2019-04-13T18:26:22.763Z,34.40
2019-04-13T18:28:52.320Z,30.20
2019-04-13T18:31:22.878Z,30.72
2019-04-13T18:33:53.374Z,30.90
2019-04-13T18:36:23.523Z,33.02
2019-04-13T18:38:53.981Z,34.60
2019-04-13T18:41:24.464Z,31.85
2019-04-13T18:43:53.983Z,32.38
2019-04-13T18:46:24.352Z,35.92
2019-04-13T18:48:53.788Z,30.68
2019-04-13T18:51:23.482Z,30.23
2019-04-13T18:53:53.339Z,29.10
2019-04-13T18:56:23.201Z,33.05
2019-04-13T18:58:52.769Z,30.50
2019-04-13T19:01:23.746Z,29.42
2019-04-13T19:03:53.601Z,26.82
2019-04-13T19:06:27.206Z,33.18
2019-04-13T19:08:54.194Z,30.30
2019-04-13T19:11:23.588Z,29.55
2019-04-13T19:13:53.150Z,29.65
2019-04-13T19:16:22.574Z,35.25
2019-04-13T19:18:52.001Z,34.40
2019-04-13T19:21:21.419Z,28.70
2019-04-13T19:23:50.872Z,33.20
2019-04-13T19:26:20.964Z,37.42
2019-04-13T19:28:50.689Z,41.05
2019-04-13T19:31:20.215Z,40.63
2019-04-13T19:33:49.679Z,34.08
2019-04-13T19:36:19.217Z,42.62
2019-04-13T19:38:50.736Z,37.53
2019-04-13T19:41:20.008Z,34.58
2019-04-13T19:43:49.613Z,36.85
2019-04-13T19:46:19.067Z,39.38
2019-04-13T19:48:48.637Z,40.90
2019-04-13T19:51:20.415Z,39.13
2019-04-13T19:53:56.815Z,41.20
2019-04-13T19:56:26.252Z,41.75
2019-04-13T19:58:55.597Z,37.83
2019-04-13T20:01:27.734Z,38.45
2019-04-13T20:03:57.398Z,39.70
2019-04-13T20:06:26.903Z,42.80
2019-04-13T20:08:56.283Z,41.75
2019-04-13T20:11:25.772Z,41.77
2019-04-13T20:14:03.520Z,43.63
2019-04-13T20:16:27.362Z,39.85
2019-04-13T20:18:56.856Z,42.62
2019-04-13T20:21:26.321Z,40.52
2019-04-13T20:23:55.842Z,40.90
2019-04-13T20:26:25.337Z,48.02
2019-04-13T20:28:55.033Z,44.85
2019-04-13T20:31:26.824Z,36.60
2019-04-13T20:33:56.758Z,35.40
2019-04-13T20:36:27.369Z,39.27
2019-04-13T20:38:56.940Z,37.15
2019-04-13T20:41:39.921Z,39.73
2019-04-13T20:44:05.759Z,43.28
2019-04-13T20:46:29.839Z,40.08
2019-04-13T20:48:59.862Z,37.88
2019-04-13T20:51:30.115Z,47.08
2019-04-13T20:53:59.662Z,43.85
2019-04-13T20:56:29.438Z,35.40
2019-04-13T20:58:59.746Z,35.20
2019-04-13T21:01:30.072Z,35.05
2019-04-13T21:03:59.808Z,36.45
2019-04-13T21:06:30.411Z,41.33
2019-04-13T21:09:01.014Z,37.25
2019-04-13T21:11:30.744Z,36.85
2019-04-13T21:14:09.094Z,40.78
2019-04-13T21:16:32.077Z,41.42
2019-04-13T21:19:02.544Z,37.15
2019-04-13T21:21:32.398Z,38.10
2019-04-13T21:24:02.421Z,37.85
2019-04-13T21:26:32.775Z,35.38
2019-04-13T21:29:02.535Z,39.83
2019-04-13T21:31:32.518Z,36.88
2019-04-13T21:34:02.686Z,39.95
2019-04-13T21:36:32.817Z,40.65
2019-04-13T21:39:04.822Z,42.78
2019-04-13T21:41:34.491Z,38.67
2019-04-13T21:44:13.360Z,45.38
2019-04-13T21:46:35.078Z,38.70
2019-04-13T21:49:05.419Z,38.85
2019-04-13T21:52:00.371Z,44.10
2019-04-13T21:54:34.241Z,35.50
2019-04-13T21:57:04.539Z,40.55
2019-04-13T21:59:36.979Z,36.48
2019-04-13T22:02:22.554Z,47.88
2019-04-13T22:04:52.389Z,42.00
2019-04-13T22:07:22.172Z,41.20
2019-04-13T22:09:52.046Z,38.85
2019-04-13T22:12:22.157Z,37.75
2019-04-13T22:14:59.774Z,36.90
2019-04-13T22:17:23.056Z,39.30
2019-04-13T22:19:52.955Z,35.43
2019-04-13T22:22:22.895Z,36.20
2019-04-13T22:24:52.984Z,39.58
2019-04-13T22:27:23.160Z,38.48
2019-04-13T22:29:57.454Z,42.58
2019-04-13T22:32:49.615Z,46.18
2019-04-13T22:35:33.103Z,42.10
2019-04-13T22:38:02.639Z,38.88
2019-04-13T22:40:32.123Z,43.17
2019-04-13T22:43:02.459Z,36.88
2019-04-13T22:45:32.008Z,39.15
2019-04-13T22:48:09.805Z,36.98
2019-04-13T22:50:59.033Z,35.33
2019-04-13T22:53:48.248Z,35.40
2019-04-13T22:56:26.753Z,34.43
2019-04-13T22:58:56.040Z,41.63
2019-04-13T23:01:29.074Z,40.25
2019-04-13T23:03:59.413Z,36.03
2019-04-13T23:06:29.263Z,44.53
2019-04-13T23:08:59.674Z,41.65
2019-04-13T23:11:30.164Z,39.67
2019-04-13T23:14:00.520Z,39.55
2019-04-13T23:16:30.284Z,39.05
2019-04-13T23:19:00.218Z,38.30
2019-04-13T23:21:29.697Z,43.45
2019-04-13T23:23:59.499Z,41.20
2019-04-13T23:26:29.798Z,49.15
2019-04-13T23:28:59.753Z,43.70
2019-04-13T23:31:30.407Z,42.90
2019-04-13T23:34:00.728Z,40.15
2019-04-13T23:36:31.206Z,41.65
2019-04-13T23:39:01.675Z,38.95
2019-04-13T23:41:32.197Z,46.35
2019-04-13T23:44:02.707Z,45.38
2019-04-13T23:46:32.896Z,44.60
2019-04-13T23:49:03.602Z,43.80
2019-04-13T23:51:33.893Z,42.35
2019-04-13T23:54:04.206Z,45.65
2019-04-13T23:56:47.536Z,40.55
2019-04-13T23:59:24.101Z,44.20
